sensor_id;sensor_type;location;lat;lon;timestamp;pressure;altitude;pressure_sealevel;temperature;humidity
75536;BME280;64119;52.070;20.804;2023-07-31T00:01:50;99759.77;;;17.72;76.81
75536;BME280;64119;52.070;20.804;2023-07-31T00:04:18;99763.13;;;17.70;77.00
75536;BME280;64119;52.070;20.804;2023-07-31T00:06:45;99762.58;;;17.68;76.86
75536;BME280;64119;52.070;20.804;2023-07-31T00:09:13;99767.63;;;17.66;77.78
75536;BME280;64119;52.070;20.804;2023-07-31T00:11:41;99769.28;;;17.63;77.61
75536;BME280;64119;52.070;20.804;2023-07-31T00:14:08;99769.47;;;17.61;77.56
75536;BME280;64119;52.070;20.804;2023-07-31T00:16:37;99769.21;;;17.59;77.63
75536;BME280;64119;52.070;20.804;2023-07-31T00:19:05;99767.23;;;17.56;78.06
75536;BME280;64119;52.070;20.804;2023-07-31T00:21:33;99769.13;;;17.53;78.94
75536;BME280;64119;52.070;20.804;2023-07-31T00:24:01;99768.96;;;17.51;78.31
75536;BME280;64119;52.070;20.804;2023-07-31T00:26:28;99766.26;;;17.49;78.29
75536;BME280;64119;52.070;20.804;2023-07-31T00:28:56;99765.85;;;17.47;78.66
75536;BME280;64119;52.070;20.804;2023-07-31T00:31:24;99765.82;;;17.45;78.08
75536;BME280;64119;52.070;20.804;2023-07-31T00:33:52;99759.84;;;17.43;79.46
75536;BME280;64119;52.070;20.804;2023-07-31T00:36:20;99759.05;;;17.40;79.31
75536;BME280;64119;52.070;20.804;2023-07-31T00:38:48;99756.13;;;17.38;79.64
75536;BME280;64119;52.070;20.804;2023-07-31T00:41:16;99756.52;;;17.36;79.46
75536;BME280;64119;52.070;20.804;2023-07-31T00:43:44;99753.34;;;17.34;79.72
75536;BME280;64119;52.070;20.804;2023-07-31T00:46:12;99753.86;;;17.30;80.26
75536;BME280;64119;52.070;20.804;2023-07-31T00:48:41;99756.25;;;17.28;80.59
75536;BME280;64119;52.070;20.804;2023-07-31T00:51:08;99751.98;;;17.25;80.53
75536;BME280;64119;52.070;20.804;2023-07-31T00:53:36;99752.48;;;17.23;80.73
75536;BME280;64119;52.070;20.804;2023-07-31T00:56:04;99759.23;;;17.21;80.45
75536;BME280;64119;52.070;20.804;2023-07-31T00:58:32;99762.91;;;17.21;80.54
75536;BME280;64119;52.070;20.804;2023-07-31T01:01:00;99766.27;;;17.19;80.71
75536;BME280;64119;52.070;20.804;2023-07-31T01:03:28;99762.96;;;17.17;80.57
75536;BME280;64119;52.070;20.804;2023-07-31T01:06:25;99766.48;;;17.15;80.75
75536;BME280;64119;52.070;20.804;2023-07-31T01:09:11;99764.81;;;17.12;81.53
75536;BME280;64119;52.070;20.804;2023-07-31T01:12:02;99767.45;;;17.09;81.17
75536;BME280;64119;52.070;20.804;2023-07-31T01:14:30;99766.92;;;17.07;80.97
75536;BME280;64119;52.070;20.804;2023-07-31T01:16:58;99764.70;;;17.05;80.95
75536;BME280;64119;52.070;20.804;2023-07-31T01:19:27;99765.92;;;17.03;81.19
75536;BME280;64119;52.070;20.804;2023-07-31T01:22:03;99768.70;;;17.00;82.00
75536;BME280;64119;52.070;20.804;2023-07-31T01:24:54;99769.90;;;16.97;81.17
75536;BME280;64119;52.070;20.804;2023-07-31T01:27:25;99772.92;;;16.95;82.11
75536;BME280;64119;52.070;20.804;2023-07-31T01:30:10;99769.81;;;16.92;81.87
75536;BME280;64119;52.070;20.804;2023-07-31T01:32:43;99775.30;;;16.91;82.14
75536;BME280;64119;52.070;20.804;2023-07-31T01:35:16;99777.92;;;16.87;82.13
75536;BME280;64119;52.070;20.804;2023-07-31T01:37:45;99780.20;;;16.86;81.87
75536;BME280;64119;52.070;20.804;2023-07-31T01:40:13;99782.75;;;16.83;81.89
75536;BME280;64119;52.070;20.804;2023-07-31T01:42:40;99780.17;;;16.80;82.77
75536;BME280;64119;52.070;20.804;2023-07-31T01:45:08;99782.01;;;16.78;81.89
75536;BME280;64119;52.070;20.804;2023-07-31T01:47:36;99782.81;;;16.75;82.91
75536;BME280;64119;52.070;20.804;2023-07-31T01:50:05;99785.14;;;16.73;82.20
75536;BME280;64119;52.070;20.804;2023-07-31T01:52:33;99787.50;;;16.70;82.90
75536;BME280;64119;52.070;20.804;2023-07-31T01:55:00;99786.23;;;16.68;82.57
75536;BME280;64119;52.070;20.804;2023-07-31T01:57:28;99782.50;;;16.66;82.67
75536;BME280;64119;52.070;20.804;2023-07-31T01:59:56;99784.16;;;16.66;83.34
75536;BME280;64119;52.070;20.804;2023-07-31T02:02:24;99785.48;;;16.65;82.72
75536;BME280;64119;52.070;20.804;2023-07-31T02:04:52;99786.15;;;16.64;83.17
75536;BME280;64119;52.070;20.804;2023-07-31T02:07:20;99786.31;;;16.64;83.64
75536;BME280;64119;52.070;20.804;2023-07-31T02:09:48;99791.02;;;16.64;83.73
75536;BME280;64119;52.070;20.804;2023-07-31T02:12:17;99794.87;;;16.63;85.30
75536;BME280;64119;52.070;20.804;2023-07-31T02:14:44;99795.09;;;16.63;84.36
75536;BME280;64119;52.070;20.804;2023-07-31T02:17:12;99802.69;;;16.62;85.69
75536;BME280;64119;52.070;20.804;2023-07-31T02:19:40;99800.46;;;16.62;85.19
75536;BME280;64119;52.070;20.804;2023-07-31T02:22:08;99799.89;;;16.61;85.12
75536;BME280;64119;52.070;20.804;2023-07-31T02:24:36;99799.98;;;16.62;85.01
75536;BME280;64119;52.070;20.804;2023-07-31T02:27:04;99802.27;;;16.61;87.22
75536;BME280;64119;52.070;20.804;2023-07-31T02:29:31;99808.77;;;16.62;86.33
75536;BME280;64119;52.070;20.804;2023-07-31T02:31:59;99808.48;;;16.63;84.72
75536;BME280;64119;52.070;20.804;2023-07-31T02:34:27;99814.40;;;16.65;84.20
75536;BME280;64119;52.070;20.804;2023-07-31T02:36:55;99814.89;;;16.68;84.75
75536;BME280;64119;52.070;20.804;2023-07-31T02:39:23;99819.61;;;16.71;85.64
75536;BME280;64119;52.070;20.804;2023-07-31T02:41:51;99816.10;;;16.73;86.53
75536;BME280;64119;52.070;20.804;2023-07-31T02:44:19;99809.94;;;16.76;85.14
75536;BME280;64119;52.070;20.804;2023-07-31T02:46:48;99802.17;;;16.79;86.90
75536;BME280;64119;52.070;20.804;2023-07-31T02:49:16;99801.09;;;16.81;86.35
75536;BME280;64119;52.070;20.804;2023-07-31T02:51:44;99802.59;;;16.84;85.56
75536;BME280;64119;52.070;20.804;2023-07-31T02:54:12;99801.33;;;16.87;85.69
75536;BME280;64119;52.070;20.804;2023-07-31T02:56:40;99806.79;;;16.89;85.67
75536;BME280;64119;52.070;20.804;2023-07-31T02:59:08;99806.89;;;16.92;85.77
75536;BME280;64119;52.070;20.804;2023-07-31T03:01:36;99810.51;;;16.94;85.00
75536;BME280;64119;52.070;20.804;2023-07-31T03:04:04;99809.36;;;16.95;84.49
75536;BME280;64119;52.070;20.804;2023-07-31T03:06:32;99809.73;;;16.98;85.20
75536;BME280;64119;52.070;20.804;2023-07-31T03:08:59;99814.30;;;16.99;84.50
75536;BME280;64119;52.070;20.804;2023-07-31T03:11:28;99811.89;;;17.02;84.24
75536;BME280;64119;52.070;20.804;2023-07-31T03:13:56;99816.91;;;17.04;84.81
75536;BME280;64119;52.070;20.804;2023-07-31T03:16:24;99818.11;;;17.06;84.69
75536;BME280;64119;52.070;20.804;2023-07-31T03:18:52;99824.83;;;17.07;85.72
75536;BME280;64119;52.070;20.804;2023-07-31T03:21:19;99826.77;;;17.08;84.45
75536;BME280;64119;52.070;20.804;2023-07-31T03:23:47;99832.54;;;17.10;84.08
75536;BME280;64119;52.070;20.804;2023-07-31T03:26:15;99832.52;;;17.12;84.18
75536;BME280;64119;52.070;20.804;2023-07-31T03:28:43;99830.36;;;17.14;83.74
75536;BME280;64119;52.070;20.804;2023-07-31T03:31:11;99830.01;;;17.16;84.26
75536;BME280;64119;52.070;20.804;2023-07-31T03:33:39;99830.41;;;17.18;84.22
75536;BME280;64119;52.070;20.804;2023-07-31T03:36:07;99832.86;;;17.19;84.72
75536;BME280;64119;52.070;20.804;2023-07-31T03:38:35;99835.06;;;17.20;84.16
75536;BME280;64119;52.070;20.804;2023-07-31T03:41:03;99838.33;;;17.23;83.90
75536;BME280;64119;52.070;20.804;2023-07-31T03:43:31;99841.35;;;17.24;84.27
75536;BME280;64119;52.070;20.804;2023-07-31T03:46:00;99845.39;;;17.26;83.82
75536;BME280;64119;52.070;20.804;2023-07-31T03:48:28;99844.73;;;17.28;83.21
75536;BME280;64119;52.070;20.804;2023-07-31T03:50:56;99848.20;;;17.31;83.69
75536;BME280;64119;52.070;20.804;2023-07-31T03:53:24;99847.11;;;17.33;83.81
75536;BME280;64119;52.070;20.804;2023-07-31T03:55:51;99850.78;;;17.35;82.89
75536;BME280;64119;52.070;20.804;2023-07-31T03:58:19;99850.86;;;17.36;83.80
75536;BME280;64119;52.070;20.804;2023-07-31T04:00:47;99849.22;;;17.38;83.01
75536;BME280;64119;52.070;20.804;2023-07-31T04:03:15;99854.06;;;17.39;83.45
75536;BME280;64119;52.070;20.804;2023-07-31T04:05:44;99857.92;;;17.39;83.08
75536;BME280;64119;52.070;20.804;2023-07-31T04:08:11;99862.52;;;17.41;83.47
75536;BME280;64119;52.070;20.804;2023-07-31T04:10:39;99863.34;;;17.41;83.68
75536;BME280;64119;52.070;20.804;2023-07-31T04:13:07;99863.88;;;17.42;83.50
75536;BME280;64119;52.070;20.804;2023-07-31T04:15:34;99865.73;;;17.44;83.33
75536;BME280;64119;52.070;20.804;2023-07-31T04:18:02;99869.66;;;17.45;82.96
75536;BME280;64119;52.070;20.804;2023-07-31T04:20:30;99871.83;;;17.46;82.51
75536;BME280;64119;52.070;20.804;2023-07-31T04:22:58;99873.17;;;17.47;82.44
75536;BME280;64119;52.070;20.804;2023-07-31T04:25:26;99877.53;;;17.47;82.39
75536;BME280;64119;52.070;20.804;2023-07-31T04:27:53;99875.43;;;17.47;82.01
75536;BME280;64119;52.070;20.804;2023-07-31T04:30:21;99877.30;;;17.48;81.74
75536;BME280;64119;52.070;20.804;2023-07-31T04:32:49;99879.13;;;17.47;82.38
75536;BME280;64119;52.070;20.804;2023-07-31T04:35:17;99878.55;;;17.47;82.48
75536;BME280;64119;52.070;20.804;2023-07-31T04:37:45;99881.52;;;17.48;82.56
75536;BME280;64119;52.070;20.804;2023-07-31T04:40:16;99881.95;;;17.50;82.10
75536;BME280;64119;52.070;20.804;2023-07-31T04:42:44;99879.73;;;17.51;81.65
75536;BME280;64119;52.070;20.804;2023-07-31T04:45:11;99879.96;;;17.51;82.57
75536;BME280;64119;52.070;20.804;2023-07-31T04:47:39;99882.88;;;17.52;82.47
75536;BME280;64119;52.070;20.804;2023-07-31T04:50:07;99890.23;;;17.55;81.71
75536;BME280;64119;52.070;20.804;2023-07-31T04:52:36;99887.48;;;17.58;81.34
75536;BME280;64119;52.070;20.804;2023-07-31T04:55:04;99884.66;;;17.59;81.68
75536;BME280;64119;52.070;20.804;2023-07-31T04:57:31;99887.96;;;17.61;81.84
75536;BME280;64119;52.070;20.804;2023-07-31T04:59:59;99884.64;;;17.65;81.18
75536;BME280;64119;52.070;20.804;2023-07-31T05:02:27;99884.48;;;17.68;82.25
75536;BME280;64119;52.070;20.804;2023-07-31T05:04:55;99889.35;;;17.71;81.10
75536;BME280;64119;52.070;20.804;2023-07-31T05:07:23;99886.38;;;17.73;81.30
75536;BME280;64119;52.070;20.804;2023-07-31T05:09:51;99885.19;;;17.76;81.23
75536;BME280;64119;52.070;20.804;2023-07-31T05:12:19;99885.41;;;17.80;81.04
75536;BME280;64119;52.070;20.804;2023-07-31T05:14:48;99886.39;;;17.85;81.31
75536;BME280;64119;52.070;20.804;2023-07-31T05:17:15;99883.66;;;17.89;80.86
75536;BME280;64119;52.070;20.804;2023-07-31T05:19:44;99889.23;;;17.93;80.27
75536;BME280;64119;52.070;20.804;2023-07-31T05:22:11;99888.46;;;17.96;80.16
75536;BME280;64119;52.070;20.804;2023-07-31T05:24:40;99890.96;;;17.98;79.70
75536;BME280;64119;52.070;20.804;2023-07-31T05:27:08;99896.08;;;18.02;79.65
75536;BME280;64119;52.070;20.804;2023-07-31T05:29:37;99899.39;;;18.06;79.48
75536;BME280;64119;52.070;20.804;2023-07-31T05:32:05;99899.25;;;18.11;79.55
75536;BME280;64119;52.070;20.804;2023-07-31T05:34:33;99908.05;;;18.15;79.47
75536;BME280;64119;52.070;20.804;2023-07-31T05:37:01;99914.52;;;18.17;79.52
75536;BME280;64119;52.070;20.804;2023-07-31T05:39:29;99917.77;;;18.19;79.36
75536;BME280;64119;52.070;20.804;2023-07-31T05:41:56;99915.39;;;18.21;79.20
75536;BME280;64119;52.070;20.804;2023-07-31T05:44:24;99915.48;;;18.24;79.22
75536;BME280;64119;52.070;20.804;2023-07-31T05:46:52;99915.00;;;18.24;78.71
75536;BME280;64119;52.070;20.804;2023-07-31T05:49:20;99920.43;;;18.21;78.77
75536;BME280;64119;52.070;20.804;2023-07-31T05:51:48;99919.86;;;18.21;78.88
75536;BME280;64119;52.070;20.804;2023-07-31T05:54:16;99919.27;;;18.22;78.91
75536;BME280;64119;52.070;20.804;2023-07-31T05:56:43;99920.36;;;18.23;79.66
75536;BME280;64119;52.070;20.804;2023-07-31T05:59:12;99930.02;;;18.23;80.42
75536;BME280;64119;52.070;20.804;2023-07-31T06:01:40;99933.69;;;18.21;81.72
75536;BME280;64119;52.070;20.804;2023-07-31T06:04:09;99935.13;;;18.15;81.90
75536;BME280;64119;52.070;20.804;2023-07-31T06:06:36;99939.95;;;18.10;83.08
75536;BME280;64119;52.070;20.804;2023-07-31T06:09:05;99939.89;;;18.07;83.17
75536;BME280;64119;52.070;20.804;2023-07-31T06:11:32;99935.52;;;18.05;83.61
75536;BME280;64119;52.070;20.804;2023-07-31T06:14:00;99943.94;;;18.01;83.60
75536;BME280;64119;52.070;20.804;2023-07-31T06:16:28;99943.22;;;18.00;83.92
75536;BME280;64119;52.070;20.804;2023-07-31T06:18:58;99947.51;;;17.99;85.08
75536;BME280;64119;52.070;20.804;2023-07-31T06:21:25;99944.99;;;18.00;83.07
75536;BME280;64119;52.070;20.804;2023-07-31T06:23:53;99948.17;;;18.04;82.46
75536;BME280;64119;52.070;20.804;2023-07-31T06:26:21;99947.17;;;18.05;82.72
75536;BME280;64119;52.070;20.804;2023-07-31T06:28:49;99948.71;;;18.09;83.28
75536;BME280;64119;52.070;20.804;2023-07-31T06:31:17;99942.98;;;18.12;82.88
75536;BME280;64119;52.070;20.804;2023-07-31T06:33:49;99948.23;;;18.16;82.30
75536;BME280;64119;52.070;20.804;2023-07-31T06:36:17;99946.70;;;18.21;82.43
75536;BME280;64119;52.070;20.804;2023-07-31T06:38:45;99942.41;;;18.26;81.26
75536;BME280;64119;52.070;20.804;2023-07-31T06:41:13;99943.45;;;18.28;80.60
75536;BME280;64119;52.070;20.804;2023-07-31T06:43:41;99950.57;;;18.34;81.17
75536;BME280;64119;52.070;20.804;2023-07-31T06:46:09;99952.25;;;18.40;81.24
75536;BME280;64119;52.070;20.804;2023-07-31T06:48:37;99954.19;;;18.46;80.56
75536;BME280;64119;52.070;20.804;2023-07-31T06:51:05;99956.46;;;18.54;80.14
75536;BME280;64119;52.070;20.804;2023-07-31T06:53:33;99954.19;;;18.59;80.58
75536;BME280;64119;52.070;20.804;2023-07-31T06:56:00;99951.86;;;18.66;79.92
75536;BME280;64119;52.070;20.804;2023-07-31T06:58:28;99947.92;;;18.78;79.48
75536;BME280;64119;52.070;20.804;2023-07-31T07:00:56;99943.65;;;18.90;79.09
75536;BME280;64119;52.070;20.804;2023-07-31T07:03:24;99948.54;;;19.04;78.16
75536;BME280;64119;52.070;20.804;2023-07-31T07:05:52;99947.36;;;19.15;78.77
75536;BME280;64119;52.070;20.804;2023-07-31T07:08:19;99948.38;;;19.27;79.02
75536;BME280;64119;52.070;20.804;2023-07-31T07:10:47;99950.00;;;19.37;77.24
75536;BME280;64119;52.070;20.804;2023-07-31T07:13:15;99948.20;;;19.51;76.56
75536;BME280;64119;52.070;20.804;2023-07-31T07:15:47;99949.59;;;19.69;76.25
75536;BME280;64119;52.070;20.804;2023-07-31T07:18:16;99951.61;;;19.90;75.59
75536;BME280;64119;52.070;20.804;2023-07-31T07:20:49;99951.39;;;20.07;74.31
75536;BME280;64119;52.070;20.804;2023-07-31T07:23:17;99951.89;;;20.15;73.79
75536;BME280;64119;52.070;20.804;2023-07-31T07:25:46;99945.91;;;20.22;74.01
75536;BME280;64119;52.070;20.804;2023-07-31T07:28:14;99949.97;;;20.35;74.04
75536;BME280;64119;52.070;20.804;2023-07-31T07:30:42;99949.66;;;20.47;73.32
75536;BME280;64119;52.070;20.804;2023-07-31T07:33:10;99947.77;;;20.61;72.55
75536;BME280;64119;52.070;20.804;2023-07-31T07:35:37;99942.27;;;20.73;72.04
75536;BME280;64119;52.070;20.804;2023-07-31T07:38:05;99942.82;;;20.78;71.67
75536;BME280;64119;52.070;20.804;2023-07-31T07:40:38;99940.91;;;20.87;71.80
75536;BME280;64119;52.070;20.804;2023-07-31T07:43:06;99941.46;;;20.93;70.18
75536;BME280;64119;52.070;20.804;2023-07-31T07:45:34;99943.48;;;20.99;70.53
75536;BME280;64119;52.070;20.804;2023-07-31T07:48:01;99943.25;;;21.13;71.32
75536;BME280;64119;52.070;20.804;2023-07-31T07:50:29;99946.68;;;21.29;70.24
75536;BME280;64119;52.070;20.804;2023-07-31T07:52:57;99945.13;;;21.44;69.76
75536;BME280;64119;52.070;20.804;2023-07-31T07:55:25;99941.30;;;21.52;67.89
75536;BME280;64119;52.070;20.804;2023-07-31T07:57:53;99942.22;;;21.57;66.75
75536;BME280;64119;52.070;20.804;2023-07-31T08:00:20;99941.61;;;21.65;68.07
75536;BME280;64119;52.070;20.804;2023-07-31T08:02:48;99942.32;;;21.73;65.90
75536;BME280;64119;52.070;20.804;2023-07-31T08:05:16;99943.83;;;21.74;64.16
75536;BME280;64119;52.070;20.804;2023-07-31T08:07:45;99940.70;;;21.82;65.36
75536;BME280;64119;52.070;20.804;2023-07-31T08:10:12;99940.38;;;21.89;64.46
75536;BME280;64119;52.070;20.804;2023-07-31T08:12:40;99937.33;;;22.03;66.34
75536;BME280;64119;52.070;20.804;2023-07-31T08:15:08;99938.04;;;22.21;66.02
75536;BME280;64119;52.070;20.804;2023-07-31T08:17:36;99930.83;;;22.45;65.03
75536;BME280;64119;52.070;20.804;2023-07-31T08:20:05;99929.64;;;22.61;61.95
75536;BME280;64119;52.070;20.804;2023-07-31T08:22:33;99932.59;;;22.81;61.86
75536;BME280;64119;52.070;20.804;2023-07-31T08:25:01;99928.98;;;22.98;59.97
75536;BME280;64119;52.070;20.804;2023-07-31T08:27:28;99930.88;;;23.13;61.71
75536;BME280;64119;52.070;20.804;2023-07-31T08:29:56;99930.50;;;23.27;59.96
75536;BME280;64119;52.070;20.804;2023-07-31T08:32:24;99940.09;;;23.51;60.78
75536;BME280;64119;52.070;20.804;2023-07-31T08:34:52;99932.97;;;23.73;57.89
75536;BME280;64119;52.070;20.804;2023-07-31T08:37:20;99935.34;;;23.88;56.32
75536;BME280;64119;52.070;20.804;2023-07-31T08:39:48;99927.65;;;23.97;54.65
75536;BME280;64119;52.070;20.804;2023-07-31T08:42:15;99927.73;;;24.06;55.20
75536;BME280;64119;52.070;20.804;2023-07-31T08:44:43;99929.11;;;24.20;54.83
75536;BME280;64119;52.070;20.804;2023-07-31T08:47:12;99925.67;;;24.36;52.80
75536;BME280;64119;52.070;20.804;2023-07-31T08:49:41;99924.66;;;24.61;55.67
75536;BME280;64119;52.070;20.804;2023-07-31T08:52:10;99925.93;;;24.90;52.91
75536;BME280;64119;52.070;20.804;2023-07-31T08:54:38;99927.11;;;25.14;54.00
75536;BME280;64119;52.070;20.804;2023-07-31T08:57:07;99925.30;;;25.25;52.53
75536;BME280;64119;52.070;20.804;2023-07-31T08:59:36;99925.37;;;25.35;51.93
75536;BME280;64119;52.070;20.804;2023-07-31T09:02:06;99925.79;;;25.35;49.69
75536;BME280;64119;52.070;20.804;2023-07-31T09:04:37;99926.81;;;25.43;47.95
75536;BME280;64119;52.070;20.804;2023-07-31T09:07:05;99931.54;;;25.50;50.35
75536;BME280;64119;52.070;20.804;2023-07-31T09:09:33;99928.05;;;25.64;47.58
75536;BME280;64119;52.070;20.804;2023-07-31T09:12:01;99932.82;;;25.59;49.37
75536;BME280;64119;52.070;20.804;2023-07-31T09:14:30;99935.95;;;25.56;47.30
75536;BME280;64119;52.070;20.804;2023-07-31T09:16:58;99939.75;;;25.63;48.53
75536;BME280;64119;52.070;20.804;2023-07-31T09:19:35;99936.83;;;25.53;47.66
75536;BME280;64119;52.070;20.804;2023-07-31T09:22:06;99931.45;;;25.72;48.20
75536;BME280;64119;52.070;20.804;2023-07-31T09:24:34;99929.89;;;25.84;48.31
75536;BME280;64119;52.070;20.804;2023-07-31T09:27:02;99932.70;;;25.68;46.66
75536;BME280;64119;52.070;20.804;2023-07-31T09:29:30;99928.62;;;26.03;47.90
75536;BME280;64119;52.070;20.804;2023-07-31T09:31:57;99929.70;;;26.32;46.01
75536;BME280;64119;52.070;20.804;2023-07-31T09:34:36;99926.45;;;26.48;45.93
75536;BME280;64119;52.070;20.804;2023-07-31T09:37:08;99916.29;;;26.83;45.47
75536;BME280;64119;52.070;20.804;2023-07-31T09:39:48;99912.50;;;26.97;45.36
75536;BME280;64119;52.070;20.804;2023-07-31T09:42:25;99915.21;;;27.07;46.06
75536;BME280;64119;52.070;20.804;2023-07-31T09:44:54;99918.44;;;27.36;45.33
75536;BME280;64119;52.070;20.804;2023-07-31T09:47:24;99916.33;;;27.43;43.31
75536;BME280;64119;52.070;20.804;2023-07-31T09:49:53;99915.48;;;27.12;44.14
75536;BME280;64119;52.070;20.804;2023-07-31T09:52:21;99910.75;;;26.75;43.28
75536;BME280;64119;52.070;20.804;2023-07-31T09:54:49;99916.73;;;26.54;44.29
75536;BME280;64119;52.070;20.804;2023-07-31T09:57:18;99918.02;;;26.47;45.62
75536;BME280;64119;52.070;20.804;2023-07-31T09:59:51;99912.80;;;26.42;44.06
75536;BME280;64119;52.070;20.804;2023-07-31T10:02:23;99907.20;;;26.73;44.60
75536;BME280;64119;52.070;20.804;2023-07-31T10:04:51;99908.16;;;26.84;43.66
75536;BME280;64119;52.070;20.804;2023-07-31T10:07:23;99902.52;;;27.21;43.66
75536;BME280;64119;52.070;20.804;2023-07-31T10:09:53;99909.02;;;27.79;42.20
75536;BME280;64119;52.070;20.804;2023-07-31T10:12:25;99905.70;;;28.30;41.47
75536;BME280;64119;52.070;20.804;2023-07-31T10:14:55;99900.45;;;28.58;40.70
75536;BME280;64119;52.070;20.804;2023-07-31T10:17:24;99899.16;;;28.81;40.28
75536;BME280;64119;52.070;20.804;2023-07-31T10:19:53;99892.30;;;29.06;40.23
75536;BME280;64119;52.070;20.804;2023-07-31T10:22:21;99892.94;;;28.92;38.03
75536;BME280;64119;52.070;20.804;2023-07-31T10:24:50;99889.91;;;29.17;40.64
75536;BME280;64119;52.070;20.804;2023-07-31T10:27:20;99892.52;;;29.07;39.26
75536;BME280;64119;52.070;20.804;2023-07-31T10:29:48;99890.63;;;29.36;38.19
75536;BME280;64119;52.070;20.804;2023-07-31T10:32:17;99891.70;;;29.46;37.19
75536;BME280;64119;52.070;20.804;2023-07-31T10:34:47;99892.44;;;29.93;37.36
75536;BME280;64119;52.070;20.804;2023-07-31T10:37:27;99891.73;;;30.29;38.03
75536;BME280;64119;52.070;20.804;2023-07-31T10:40:06;99893.02;;;30.30;35.40
75536;BME280;64119;52.070;20.804;2023-07-31T10:42:36;99888.85;;;30.57;36.19
75536;BME280;64119;52.070;20.804;2023-07-31T10:45:08;99890.99;;;30.04;35.58
75536;BME280;64119;52.070;20.804;2023-07-31T10:47:38;99888.02;;;30.17;35.67
75536;BME280;64119;52.070;20.804;2023-07-31T10:50:20;99885.09;;;30.52;34.20
75536;BME280;64119;52.070;20.804;2023-07-31T10:52:56;99878.82;;;30.68;34.49
75536;BME280;64119;52.070;20.804;2023-07-31T10:58:08;99884.18;;;30.97;35.10
75536;BME280;64119;52.070;20.804;2023-07-31T11:00:41;99880.90;;;30.74;35.38
75536;BME280;64119;52.070;20.804;2023-07-31T11:03:09;99886.89;;;30.38;34.48
75536;BME280;64119;52.070;20.804;2023-07-31T11:10:39;99878.19;;;29.66;36.32
75536;BME280;64119;52.070;20.804;2023-07-31T11:13:07;99878.86;;;29.67;35.87
75536;BME280;64119;52.070;20.804;2023-07-31T11:15:35;99882.54;;;29.60;36.27
75536;BME280;64119;52.070;20.804;2023-07-31T11:18:03;99884.55;;;29.67;35.94
75536;BME280;64119;52.070;20.804;2023-07-31T11:20:34;99878.95;;;29.51;34.35
75536;BME280;64119;52.070;20.804;2023-07-31T11:23:03;99877.77;;;29.34;34.44
75536;BME280;64119;52.070;20.804;2023-07-31T11:25:32;99879.27;;;29.42;34.77
75536;BME280;64119;52.070;20.804;2023-07-31T11:28:07;99876.71;;;29.35;33.94
75536;BME280;64119;52.070;20.804;2023-07-31T11:30:36;99872.81;;;29.37;34.91
75536;BME280;64119;52.070;20.804;2023-07-31T11:33:05;99878.30;;;29.43;34.97
75536;BME280;64119;52.070;20.804;2023-07-31T11:35:35;99878.84;;;29.45;34.83
75536;BME280;64119;52.070;20.804;2023-07-31T11:38:03;99881.07;;;29.38;34.31
75536;BME280;64119;52.070;20.804;2023-07-31T11:40:31;99879.02;;;29.35;34.57
75536;BME280;64119;52.070;20.804;2023-07-31T11:43:04;99879.41;;;29.02;33.80
75536;BME280;64119;52.070;20.804;2023-07-31T11:45:32;99875.54;;;28.59;34.51
75536;BME280;64119;52.070;20.804;2023-07-31T11:48:01;99878.70;;;28.31;34.64
75536;BME280;64119;52.070;20.804;2023-07-31T11:50:33;99873.98;;;28.09;35.10
75536;BME280;64119;52.070;20.804;2023-07-31T11:53:07;99877.98;;;27.88;35.63
75536;BME280;64119;52.070;20.804;2023-07-31T11:55:36;99878.16;;;27.61;35.70
75536;BME280;64119;52.070;20.804;2023-07-31T11:58:04;99871.33;;;27.38;36.04
75536;BME280;64119;52.070;20.804;2023-07-31T12:00:32;99867.96;;;27.12;36.06
75536;BME280;64119;52.070;20.804;2023-07-31T12:03:00;99867.41;;;26.97;37.71
75536;BME280;64119;52.070;20.804;2023-07-31T12:05:29;99872.08;;;26.89;37.43
75536;BME280;64119;52.070;20.804;2023-07-31T12:07:57;99873.03;;;26.78;38.38
75536;BME280;64119;52.070;20.804;2023-07-31T12:10:27;99874.11;;;26.72;37.91
75536;BME280;64119;52.070;20.804;2023-07-31T12:13:07;99869.09;;;26.70;38.50
75536;BME280;64119;52.070;20.804;2023-07-31T12:15:40;99871.39;;;26.65;38.41
75536;BME280;64119;52.070;20.804;2023-07-31T12:18:13;99867.30;;;26.63;37.50
75536;BME280;64119;52.070;20.804;2023-07-31T12:20:58;99866.42;;;26.45;38.14
75536;BME280;64119;52.070;20.804;2023-07-31T12:23:30;99863.02;;;26.32;38.00
75536;BME280;64119;52.070;20.804;2023-07-31T12:26:12;99864.15;;;26.13;38.02
75536;BME280;64119;52.070;20.804;2023-07-31T12:28:44;99860.98;;;25.87;38.67
75536;BME280;64119;52.070;20.804;2023-07-31T12:31:15;99857.29;;;25.65;39.02
75536;BME280;64119;52.070;20.804;2023-07-31T12:33:45;99853.68;;;25.51;39.26
75536;BME280;64119;52.070;20.804;2023-07-31T12:36:16;99849.84;;;25.39;39.73
75536;BME280;64119;52.070;20.804;2023-07-31T12:38:44;99845.96;;;25.28;40.42
75536;BME280;64119;52.070;20.804;2023-07-31T12:41:13;99848.50;;;25.26;40.37
75536;BME280;64119;52.070;20.804;2023-07-31T12:43:42;99840.80;;;25.22;40.41
75536;BME280;64119;52.070;20.804;2023-07-31T12:46:11;99838.45;;;25.14;41.66
75536;BME280;64119;52.070;20.804;2023-07-31T12:48:39;99832.77;;;25.12;43.94
75536;BME280;64119;52.070;20.804;2023-07-31T12:51:07;99829.57;;;25.12;42.12
75536;BME280;64119;52.070;20.804;2023-07-31T12:53:36;99826.05;;;25.21;42.98
75536;BME280;64119;52.070;20.804;2023-07-31T12:56:04;99823.02;;;25.39;41.55
75536;BME280;64119;52.070;20.804;2023-07-31T12:58:32;99820.77;;;25.51;41.53
75536;BME280;64119;52.070;20.804;2023-07-31T13:01:00;99819.39;;;25.57;42.02
75536;BME280;64119;52.070;20.804;2023-07-31T13:03:29;99814.09;;;25.63;41.77
75536;BME280;64119;52.070;20.804;2023-07-31T13:05:58;99814.06;;;25.77;41.50
75536;BME280;64119;52.070;20.804;2023-07-31T13:08:25;99808.36;;;25.96;40.66